Time,TemperatureF,DewpointF,PressureIn,WindDirection,WindDirectionDegrees,WindSpeedMPH,WindSpeedGustMPH,Humidity,HourlyPrecipIn,Conditions,Clouds,dailyrainin,SolarRadiationWatts/m^2,SoftwareType,DateUTC
2013-10-23 00:12:00,48.8,42.0,29.76,North,350,0.0,-999.0,76,-99.99,,,0.00,0,weatherlink.com 1.10,2013-10-23 04:12:00,
2013-10-23 00:27:00,48.2,41.0,29.76,North,350,0.0,-999.0,77,-99.99,,,0.00,0,weatherlink.com 1.10,2013-10-23 04:27:00,
2013-10-23 00:42:00,47.6,41.0,29.76,North,350,0.0,-999.0,78,-99.99,,,0.00,0,weatherlink.com 1.10,2013-10-23 04:42:00,
2013-10-23 00:57:00,47.0,40.0,29.77,North,350,0.0,-999.0,78,-99.99,,,0.00,0,weatherlink.com 1.10,2013-10-23 04:57:00,
2013-10-23 01:12:00,46.7,41.0,29.77,North,350,0.0,-999.0,79,-99.99,,,0.00,0,weatherlink.com 1.10,2013-10-23 05:12:00,
2013-10-23 01:27:00,46.3,40.0,29.77,North,350,0.0,-999.0,80,-99.99,,,0.00,0,weatherlink.com 1.10,2013-10-23 05:27:00,
2013-10-23 01:42:00,45.7,40.0,29.78,North,350,0.0,-999.0,80,-99.99,,,0.00,0,weatherlink.com 1.10,2013-10-23 05:42:00,
2013-10-23 01:57:00,45.2,39.0,29.77,North,350,0.0,-999.0,80,-99.99,,,0.00,0,weatherlink.com 1.10,2013-10-23 05:57:00,
2013-10-23 02:12:00,44.3,39.0,29.78,North,350,0.0,-999.0,82,-99.99,,,0.00,0,weatherlink.com 1.10,2013-10-23 06:12:00,
2013-10-23 02:27:00,43.8,39.0,29.78,North,350,0.0,-999.0,83,-99.99,,,0.00,0,weatherlink.com 1.10,2013-10-23 06:27:00,
2013-10-23 02:42:00,43.3,39.0,29.77,North,350,0.0,-999.0,84,-99.99,,,0.00,0,weatherlink.com 1.10,2013-10-23 06:42:00,
2013-10-23 02:57:00,42.7,39.0,29.77,North,350,0.0,-999.0,85,-99.99,,,0.00,0,weatherlink.com 1.10,2013-10-23 06:57:00,
2013-10-23 03:12:00,42.2,38.0,29.77,North,350,0.0,-999.0,86,-99.99,,,0.00,0,weatherlink.com 1.10,2013-10-23 07:12:00,
2013-10-23 03:27:00,41.6,38.0,29.77,North,350,0.0,-999.0,86,-99.99,,,0.00,0,weatherlink.com 1.10,2013-10-23 07:27:00,
2013-10-23 03:42:00,41.0,37.0,29.77,North,350,0.0,-999.0,87,-99.99,,,0.00,0,weatherlink.com 1.10,2013-10-23 07:42:00,
2013-10-23 03:57:00,40.6,37.0,29.77,North,350,0.0,-999.0,87,-99.99,,,0.00,0,weatherlink.com 1.10,2013-10-23 07:57:00,
2013-10-23 04:12:00,40.3,37.0,29.78,North,350,0.0,-999.0,88,-99.99,,,0.00,0,weatherlink.com 1.10,2013-10-23 08:12:00,
2013-10-23 04:27:00,40.2,37.0,29.76,North,350,0.0,-999.0,89,-99.99,,,0.00,0,weatherlink.com 1.10,2013-10-23 08:27:00,
2013-10-23 04:42:00,40.2,38.0,29.76,North,350,0.0,-999.0,90,-99.99,,,0.00,0,weatherlink.com 1.10,2013-10-23 08:42:00,
2013-10-23 04:57:00,40.4,38.0,29.76,North,350,0.0,-999.0,90,-99.99,,,0.00,0,weatherlink.com 1.10,2013-10-23 08:57:00,
2013-10-23 05:12:00,40.6,38.0,29.76,North,350,0.0,-999.0,91,-99.99,,,0.00,0,weatherlink.com 1.10,2013-10-23 09:12:00,
2013-10-23 05:27:00,40.9,39.0,29.75,North,350,0.0,-999.0,91,-99.99,,,0.00,0,weatherlink.com 1.10,2013-10-23 09:27:00,
2013-10-23 05:42:00,40.7,38.0,29.74,North,350,0.0,-999.0,91,-99.99,,,0.00,0,weatherlink.com 1.10,2013-10-23 09:42:00,
2013-10-23 05:57:00,40.4,38.0,29.75,North,350,0.0,-999.0,90,-99.99,,,0.00,0,weatherlink.com 1.10,2013-10-23 09:57:00,
2013-10-23 06:12:00,40.1,38.0,29.75,North,350,0.0,-999.0,90,-99.99,,,0.00,0,weatherlink.com 1.10,2013-10-23 10:12:00,
2013-10-23 06:27:00,39.7,37.0,29.74,North,350,0.0,-999.0,90,-99.99,,,0.00,0,weatherlink.com 1.10,2013-10-23 10:27:00,
2013-10-23 06:43:00,39.3,37.0,29.74,North,350,0.0,-999.0,90,-99.99,,,0.00,0,weatherlink.com 1.10,2013-10-23 10:43:00,
2013-10-23 06:58:00,38.8,36.0,29.73,North,350,0.0,-999.0,90,-99.99,,,0.00,0,weatherlink.com 1.10,2013-10-23 10:58:00,
2013-10-23 07:13:00,38.4,36.0,29.74,North,350,0.0,-999.0,90,-99.99,,,0.00,0,weatherlink.com 1.10,2013-10-23 11:13:00,
2013-10-23 07:28:00,38.1,36.0,29.75,North,350,0.0,-999.0,91,-99.99,,,0.00,7,weatherlink.com 1.10,2013-10-23 11:28:00,
2013-10-23 07:43:00,38.3,36.0,29.74,North,350,0.0,-999.0,91,-99.99,,,0.00,23,weatherlink.com 1.10,2013-10-23 11:43:00,
2013-10-23 07:58:00,38.5,36.0,29.74,North,350,0.0,-999.0,92,-99.99,,,0.00,49,weatherlink.com 1.10,2013-10-23 11:58:00,
2013-10-23 08:13:00,38.9,37.0,29.74,North,350,0.0,-999.0,93,-99.99,,,0.00,32,weatherlink.com 1.10,2013-10-23 12:13:00,
2013-10-23 08:28:00,39.7,38.0,29.74,North,350,0.0,-999.0,93,-99.99,,,0.00,30,weatherlink.com 1.10,2013-10-23 12:28:00,
2013-10-23 08:43:00,40.7,39.0,29.74,North,350,0.0,-999.0,94,-99.99,,,0.00,84,weatherlink.com 1.10,2013-10-23 12:43:00,
2013-10-23 08:58:00,42.3,41.0,29.73,North,350,0.0,-999.0,93,-99.99,,,0.00,40,weatherlink.com 1.10,2013-10-23 12:58:00,
2013-10-23 09:13:00,44.5,41.0,29.74,North,350,0.0,-999.0,86,-99.99,,,0.00,49,weatherlink.com 1.10,2013-10-23 13:13:00,
2013-10-23 09:28:00,46.4,40.0,29.73,North,350,0.0,-999.0,79,-99.99,,,0.00,47,weatherlink.com 1.10,2013-10-23 13:28:00,
2013-10-23 09:43:00,48.0,40.0,29.72,North,350,0.0,-999.0,74,-99.99,,,0.00,148,weatherlink.com 1.10,2013-10-23 13:43:00,
2013-10-23 09:58:00,49.0,40.0,29.72,North,350,0.0,-999.0,72,-99.99,,,0.00,163,weatherlink.com 1.10,2013-10-23 13:58:00,
2013-10-23 10:13:00,49.6,39.0,29.72,North,350,0.0,-999.0,66,-99.99,,,0.00,146,weatherlink.com 1.10,2013-10-23 14:13:00,
2013-10-23 10:28:00,50.3,38.0,29.71,North,350,2.0,-999.0,62,-99.99,,,0.00,104,weatherlink.com 1.10,2013-10-23 14:28:00,
2013-10-23 10:43:00,50.7,39.0,29.71,North,350,0.0,-999.0,64,-99.99,,,0.00,132,weatherlink.com 1.10,2013-10-23 14:43:00,
2013-10-23 10:58:00,51.0,40.0,29.71,North,350,0.0,-999.0,65,-99.99,,,0.00,111,weatherlink.com 1.10,2013-10-23 14:58:00,
2013-10-23 11:13:00,51.2,40.0,29.71,North,350,0.0,-999.0,66,-99.99,,,0.00,130,weatherlink.com 1.10,2013-10-23 15:13:00,
2013-10-23 11:28:00,51.2,39.0,29.70,North,350,0.0,-999.0,64,-99.99,,,0.00,148,weatherlink.com 1.10,2013-10-23 15:28:00,
2013-10-23 11:43:00,51.3,39.0,29.69,North,350,0.0,-999.0,62,-99.99,,,0.00,148,weatherlink.com 1.10,2013-10-23 15:43:00,
2013-10-23 11:59:00,51.7,38.0,29.68,North,350,0.0,-999.0,60,-99.99,,,0.00,206,weatherlink.com 1.10,2013-10-23 15:59:00,
2013-10-23 12:13:00,52.1,38.0,29.67,North,350,0.0,-999.0,60,-99.99,,,0.00,190,weatherlink.com 1.10,2013-10-23 16:13:00,
2013-10-23 12:28:00,52.4,37.0,29.66,North,350,0.0,-999.0,57,-99.99,,,0.00,176,weatherlink.com 1.10,2013-10-23 16:28:00,
2013-10-23 12:44:00,52.5,38.0,29.65,North,350,0.0,-999.0,59,-99.99,,,0.00,151,weatherlink.com 1.10,2013-10-23 16:44:00,
2013-10-23 12:59:00,52.4,38.0,29.64,North,350,0.0,-999.0,59,-99.99,,,0.00,114,weatherlink.com 1.10,2013-10-23 16:59:00,
2013-10-23 13:14:00,52.3,38.0,29.64,North,350,0.0,-999.0,59,-99.99,,,0.00,188,weatherlink.com 1.10,2013-10-23 17:14:00,
2013-10-23 13:29:00,52.4,38.0,29.64,North,350,0.0,-999.0,59,-99.99,,,0.00,102,weatherlink.com 1.10,2013-10-23 17:29:00,
2013-10-23 13:44:00,52.5,39.0,29.63,North,350,0.0,-999.0,60,-99.99,,,0.00,97,weatherlink.com 1.10,2013-10-23 17:44:00,
2013-10-23 13:59:00,52.5,40.0,29.61,North,350,0.0,-999.0,62,-99.99,,,0.00,104,weatherlink.com 1.10,2013-10-23 17:59:00,
2013-10-23 14:14:00,52.4,39.0,29.60,North,350,4.0,-999.0,61,-99.99,,,0.00,128,weatherlink.com 1.10,2013-10-23 18:14:00,
2013-10-23 14:29:00,52.2,39.0,29.59,North,350,0.0,-999.0,62,-99.99,,,0.00,156,weatherlink.com 1.10,2013-10-23 18:29:00,
2013-10-23 14:44:00,52.0,39.0,29.59,North,350,4.0,-999.0,62,-99.99,,,0.00,88,weatherlink.com 1.10,2013-10-23 18:44:00,
2013-10-23 14:59:00,51.8,39.0,29.58,North,350,2.0,-999.0,61,-99.99,,,0.00,77,weatherlink.com 1.10,2013-10-23 18:59:00,
2013-10-23 15:14:00,51.4,38.0,29.58,North,351,0.0,-999.0,61,-99.99,,,0.00,69,weatherlink.com 1.10,2013-10-23 19:14:00,
2013-10-23 15:29:00,51.4,39.0,29.57,North,351,0.0,-999.0,63,-99.99,,,0.00,51,weatherlink.com 1.10,2013-10-23 19:29:00,
2013-10-23 15:59:00,51.2,38.0,29.57,North,351,0.0,-999.0,61,-99.99,,,0.00,28,weatherlink.com 1.10,2013-10-23 19:59:00,
2013-10-23 16:14:00,50.9,39.0,29.58,North,351,0.0,-999.0,65,-99.99,,,0.00,25,weatherlink.com 1.10,2013-10-23 20:14:00,
2013-10-23 16:29:00,50.5,39.0,29.59,North,351,0.0,-999.0,66,-99.99,,,0.00,14,weatherlink.com 1.10,2013-10-23 20:29:00,
2013-10-23 16:44:00,50.1,39.0,29.58,North,351,0.0,-999.0,67,-99.99,,,0.00,14,weatherlink.com 1.10,2013-10-23 20:44:00,
2013-10-23 16:59:00,49.1,42.0,29.59,North,351,0.0,-999.0,76,-99.99,,,0.00,9,weatherlink.com 1.10,2013-10-23 20:59:00,
2013-10-23 17:14:00,48.2,42.0,29.59,North,351,0.0,-999.0,79,-99.99,,,0.00,5,weatherlink.com 1.10,2013-10-23 21:14:00,
2013-10-23 17:29:00,47.6,42.0,29.58,North,351,0.0,-999.0,81,-99.99,,,0.00,0,weatherlink.com 1.10,2013-10-23 21:29:00,
2013-10-23 17:44:00,47.1,41.0,29.59,North,351,0.0,-999.0,80,-99.99,,,0.00,0,weatherlink.com 1.10,2013-10-23 21:44:00,
2013-10-23 17:59:00,46.9,41.0,29.59,North,351,0.0,-999.0,81,-99.99,,,0.00,0,weatherlink.com 1.10,2013-10-23 21:59:00,
2013-10-23 18:14:00,46.5,40.0,29.58,North,351,0.0,-999.0,79,-99.99,,,0.00,0,weatherlink.com 1.10,2013-10-23 22:14:00,
2013-10-23 18:29:00,46.7,41.0,29.59,North,351,0.0,-999.0,80,-99.99,,,0.00,0,weatherlink.com 1.10,2013-10-23 22:29:00,
2013-10-23 18:44:00,46.6,41.0,29.59,North,351,0.0,-999.0,81,-99.99,,,0.00,0,weatherlink.com 1.10,2013-10-23 22:44:00,
2013-10-23 18:59:00,46.5,41.0,29.61,North,351,0.0,-999.0,81,-99.99,,,0.00,0,weatherlink.com 1.10,2013-10-23 22:59:00,
2013-10-23 19:14:00,46.4,41.0,29.61,North,351,0.0,-999.0,81,-99.99,,,0.00,0,weatherlink.com 1.10,2013-10-23 23:14:00,
2013-10-23 19:29:00,46.5,40.0,29.60,North,351,0.0,-999.0,77,-99.99,,,0.00,0,weatherlink.com 1.10,2013-10-23 23:29:00,
2013-10-23 19:44:00,46.6,41.0,29.60,North,351,0.0,-999.0,80,-99.99,,,0.00,0,weatherlink.com 1.10,2013-10-23 23:44:00,
2013-10-23 19:59:00,46.4,41.0,29.59,North,351,0.0,-999.0,81,-99.99,,,0.00,0,weatherlink.com 1.10,2013-10-23 23:59:00,
2013-10-23 20:14:00,46.0,40.0,29.59,North,351,0.0,-999.0,79,-99.99,,,0.00,0,weatherlink.com 1.10,2013-10-24 00:14:00,
2013-10-23 20:29:00,46.0,41.0,29.60,North,351,0.0,-999.0,81,-99.99,,,0.00,0,weatherlink.com 1.10,2013-10-24 00:29:00,
2013-10-23 20:44:00,45.8,40.0,29.59,North,351,0.0,-999.0,81,-99.99,,,0.00,0,weatherlink.com 1.10,2013-10-24 00:44:00,
2013-10-23 20:59:00,45.6,40.0,29.59,North,351,0.0,-999.0,82,-99.99,,,0.00,0,weatherlink.com 1.10,2013-10-24 00:59:00,
2013-10-23 21:14:00,45.5,41.0,29.61,North,351,0.0,-999.0,83,-99.99,,,0.00,0,weatherlink.com 1.10,2013-10-24 01:14:00,
2013-10-23 21:29:00,45.4,41.0,29.60,North,351,0.0,-999.0,85,-99.99,,,0.00,0,weatherlink.com 1.10,2013-10-24 01:29:00,
2013-10-23 21:44:00,45.1,41.0,29.60,North,351,0.0,-999.0,85,-99.99,,,0.00,0,weatherlink.com 1.10,2013-10-24 01:44:00,
2013-10-23 21:59:00,45.0,41.0,29.60,North,351,0.0,-999.0,85,-99.99,,,0.00,0,weatherlink.com 1.10,2013-10-24 01:59:00,
2013-10-23 22:14:00,45.0,41.0,29.60,North,351,0.0,-999.0,85,-99.99,,,0.00,0,weatherlink.com 1.10,2013-10-24 02:14:00,
2013-10-23 22:29:00,44.9,40.0,29.59,North,351,0.0,-999.0,84,-99.99,,,0.00,0,weatherlink.com 1.10,2013-10-24 02:29:00,
2013-10-23 22:44:00,44.8,40.0,29.60,North,351,0.0,-999.0,83,-99.99,,,0.00,0,weatherlink.com 1.10,2013-10-24 02:44:00,
2013-10-23 22:59:00,44.9,40.0,29.60,North,351,0.0,-999.0,82,-99.99,,,0.00,0,weatherlink.com 1.10,2013-10-24 02:59:00,
2013-10-23 23:14:00,44.9,40.0,29.60,North,351,0.0,-999.0,82,-99.99,,,0.00,0,weatherlink.com 1.10,2013-10-24 03:14:00,
2013-10-23 23:29:00,44.8,39.0,29.60,North,351,0.0,-999.0,81,-99.99,,,0.00,0,weatherlink.com 1.10,2013-10-24 03:29:00,
2013-10-23 23:44:00,44.8,39.0,29.60,North,351,0.0,-999.0,81,-99.99,,,0.00,0,weatherlink.com 1.10,2013-10-24 03:44:00,
2013-10-23 23:59:00,44.8,39.0,29.60,North,351,0.0,-999.0,80,-99.99,,,0.00,0,weatherlink.com 1.10,2013-10-24 03:59:00,